Terminal Aerodrome Forecast
Issued by NWS

Home | Current Version | Previous Version | Text Only | Print | Product List | Glossary On
Versions: 1 2 3 4 5 6 7 8 9 10 11 12
330
FTUS46 KPDT 240520
TAFALW
TAF
KALW 240520Z 2406/2506 21010G20KT P6SM FEW250
     FM241100 21008G15KT P6SM FEW150 SCT250
     FM242100 22015G25KT P6SM FEW060 SCT150 BKN250
     FM250300 21008G15KT P6SM SCT250=

USA.gov is the U.S. government's official web portal to all federal, state and local government web resources and services.